Flight Track Log - Related Links

Times and Time Zones

All times are in EDT time to prevent confusion due to time zone crossing. See the VH-CZI flight status page for this flight to view local times or setup timezone preferences in your user account.

Time Position Orientation Groundspeed Altitude Reporting Facility
EDT Latitude Longitude Course Direction KTS MPH feet Rate Location/Type
Sat 07:46:39 PM -32.1092 115.8570 157° South 89 102 1,300  Level Aus ATC (RADAR)
Sat 07:47:14 PM -32.1218 115.8634 157° South 89 102 1,700 200 Climbing Aus ATC (RADAR)
Sat 07:48:09 PM -32.0930 115.8779 23° Northeast 143 165 1,600 -75 Descending Aus ATC (RADAR)
Sat 07:48:34 PM -32.0870 115.8608 292° West 132 152 1,600  Level Aus ATC (RADAR)
Sat 07:49:04 PM -32.0801 115.8410 292° West 128 147 1,600  Level Aus ATC (RADAR)
Sat 07:49:54 PM -32.0696 115.8079 291° West 126 145 1,600  Level Aus ATC (RADAR)
Sat 07:50:24 PM -32.0632 115.7874 290° West 129 148 1,600 92 Level Aus ATC (RADAR)
Sat 07:50:59 PM -32.0553 115.7645 292° West 127 146 1,700 640 Climbing Aus ATC (RADAR)
Sat 07:51:39 PM -32.0341 115.7555 340° North 131 151 2,400 1,040 Climbing Aus ATC (RADAR)
Sat 07:52:14 PM -32.0141 115.7653 22° Northeast 132 152 3,000 343 Climbing Aus ATC (RADAR)
Sat 07:53:24 PM -31.9676 115.7809 16° North 152 175 3,000  Level Aus ATC (RADAR)
Sat 07:53:44 PM -31.9534 115.7858 16° North 154 177 3,000 109 Level Aus ATC (RADAR)
Sat 07:54:19 PM -31.9294 115.7935 15° North 151 174 3,100 71 Climbing Aus ATC (RADAR)
Sat 07:55:09 PM -31.8946 115.7939 North 150 173 3,100 -71 Level Aus ATC (RADAR)
Sat 07:55:44 PM -31.8699 115.7942 North 155 178 3,000 -300 Descending Aus ATC (RADAR)
Sat 07:56:29 PM -31.8444 115.8194 40° Northeast 157 181 2,700 -348 Descending Aus ATC (RADAR)
Sat 07:56:53 PM -31.8338 115.8368 55° Northeast 153 176 2,600 -61 Descending Aus ATC (RADAR)
Sat 07:58:08 PM -31.8033 115.8858 54° Northeast 141 162 2,600  Level Aus ATC (RADAR)
Sat 07:58:33 PM -31.7977 115.9039 70° East 137 158 2,600  Level Aus ATC (RADAR)
Sat 07:59:03 PM -31.7955 115.9257 83° East 132 152 2,600  Level Aus ATC (RADAR)
Sat 07:59:28 PM -31.7935 115.9441 83° East 133 153 2,600  Level Aus ATC (RADAR)
Sat 08:00:13 PM -31.7939 115.9754 91° East 121 139 2,600  Level Aus ATC (RADAR)
Sat 08:00:43 PM -31.7985 115.9941 106° East 114 131 2,600 -71 Level Aus ATC (RADAR)
Sat 08:01:38 PM -31.8168 116.0011 162° South 80 92 2,500 -150 Descending Aus ATC (RADAR)
Sat 08:02:03 PM -31.8254 115.9983 195° South 78 90 2,400 -505 Descending Aus ATC (RADAR)
Sat 08:03:13 PM -31.8516 115.9911 193° South 87 100 1,700 -533 Descending Aus ATC (RADAR)
Sat 08:03:33 PM -31.8591 115.9886 196° South 87 100 1,600 -400 Descending Aus ATC (RADAR)
Sat 08:03:58 PM -31.8688 115.9861 192° South 87 100 1,400 -400 Descending Aus ATC (RADAR)
Sat 08:04:33 PM -31.8820 115.9825 193° South 84 97 1,200 -480 Descending Aus ATC (RADAR)
Sat 08:05:13 PM -31.8975 115.9783 193° South 86 99 800 -480 Descending Aus ATC (RADAR)
Sat 08:05:48 PM -31.9115 115.9732 197° South 90 104 600 257 Descending Aus ATC (RADAR)
Sat 08:06:23 PM -31.9218 115.9648 215° Southwest 85 98 1,100 1,029 Climbing Aus ATC (RADAR)
Sat 08:06:58 PM -31.9103 115.9475 308° West 116 133 1,800 1,114 Climbing Aus ATC (RADAR)
Sat 08:07:33 PM -31.8947 115.9321 320° Northwest 124 143 2,400 545 Climbing Aus ATC (RADAR)
Sat 08:08:37 PM -31.8524 115.9158 342° North 172 198 2,700 472 Climbing Aus ATC (RADAR)
Sat 08:09:02 PM -31.8323 115.9163 North 174 200 3,100 500 Climbing Aus ATC (RADAR)
Sat 08:09:37 PM -31.8042 115.9165 360° North 172 198 3,200 75 Climbing Aus ATC (RADAR)
Sat 08:10:22 PM -31.7853 115.9465 53° Northeast 162 186 3,200 -75 Level Aus ATC (RADAR)
Sat 08:10:57 PM -31.7953 115.9723 115° Southeast 146 168 3,100 -257 Descending Aus ATC (RADAR)
Sat 08:11:32 PM -31.8046 115.9985 113° Southeast 146 168 2,900 -343 Descending Aus ATC (RADAR)
Sat 08:12:07 PM -31.8180 116.0151 134° Southeast 127 146 2,700 -600 Descending Aus ATC (RADAR)
Sat 08:12:42 PM -31.8350 116.0098 195° South 109 125 2,200 -720 Descending Aus ATC (RADAR)
Sat 08:13:47 PM -31.8638 115.9947 204° Southwest 104 120 1,500 -733 Descending Aus ATC (RADAR)
Sat 08:14:12 PM -31.8730 115.9910 199° South 88 101 1,100 -900 Descending Aus ATC (RADAR)
Sat 08:14:47 PM -31.8855 115.9882 191° South 80 92 600 -300 Descending Aus ATC (RADAR)
Sat 08:15:32 PM -31.8992 115.9791 209° Southwest 77 89 700 75 Climbing Aus ATC (RADAR)
Sat 08:16:07 PM -31.9130 115.9739 198° South 91 105 700 600 Level Aus ATC (RADAR)
Sat 08:16:42 PM -31.9243 115.9821 148° Southeast 87 100 1,400 1,029 Climbing Aus ATC (RADAR)
Sat 08:17:17 PM -31.9148 116.0031 62° Northeast 125 144 1,900 943 Climbing Aus ATC (RADAR)
Sat 08:17:52 PM -31.9076 116.0249 69° East 116 133 2,500 1,091 Climbing Aus ATC (RADAR)
Sat 08:19:07 PM -31.8927 116.0687 68° East 112 129 3,900 1,080 Climbing Aus ATC (RADAR)
Sat 08:19:32 PM -31.8862 116.0830 62° Northeast 114 131 4,300 900 Climbing Aus ATC (RADAR)
Sat 08:20:07 PM -31.8761 116.1037 60° Northeast 115 132 4,800 600 Climbing Aus ATC (RADAR)
Sat 08:20:52 PM -31.8638 116.1321 63° Northeast 130 150 5,100 300 Climbing Aus ATC (RADAR)
Sat 08:21:27 PM -31.8534 116.1601 66° East 154 177 5,200 86 Climbing Aus ATC (RADAR)
Sat 08:22:02 PM -31.8401 116.1877 60° Northeast 163 188 5,200  Level Aus ATC (RADAR)
Sat 08:22:32 PM -31.8277 116.2118 59° Northeast 166 191 5,200  Level Aus ATC (RADAR)
Sat 08:23:07 PM -31.8145 116.2404 62° Northeast 167 192 5,200  Level Aus ATC (RADAR)
Sat 08:24:12 PM -31.7960 116.2953 68° East 159 183 5,200  Level Aus ATC (RADAR)
Sat 08:24:36 PM -31.7911 116.3170 75° East 160 184 5,200  Level Aus ATC (RADAR)
Sat 08:25:11 PM -31.7854 116.3478 78° East 161 185 5,200  Level Aus ATC (RADAR)
Sat 08:25:51 PM -31.7765 116.3822 73° East 162 186 5,200  Level Aus ATC (RADAR)
Sat 08:26:26 PM -31.7615 116.4095 57° Northeast 166 191 5,200 -86 Level Aus ATC (RADAR)
Sat 08:27:01 PM -31.7457 116.4361 55° Northeast 167 192 5,100  Descending Aus ATC (RADAR)
Sat 08:27:41 PM -31.7300 116.4681 60° Northeast 166 191 5,200 80 Climbing Aus ATC (RADAR)
Sat 08:28:16 PM -31.7175 116.4966 63° Northeast 165 190 5,200  Level Aus ATC (RADAR)
Sat 08:29:11 PM -31.6947 116.5396 58° Northeast 167 192 5,200 -75 Level Aus ATC (RADAR)
Sat 08:29:36 PM -31.6816 116.5572 49° Northeast 168 193 5,100  Descending Aus ATC (RADAR)
Sat 08:30:11 PM -31.6720 116.5857 68° East 158 182 5,200 150 Climbing Aus ATC (RADAR)
Sat 08:30:56 PM -31.6679 116.6249 83° East 154 177 5,300 75 Climbing Aus ATC (RADAR)
Sat 08:31:31 PM -31.6682 116.6550 91° East 154 177 5,300  Level Aus ATC (RADAR)
Sat 08:32:06 PM -31.6660 116.6859 85° East 158 182 5,300  Level Aus ATC (RADAR)
Sat 08:32:36 PM -31.6657 116.7115 89° East 152 175 5,300 -92 Level Aus ATC (RADAR)
Sat 08:33:11 PM -31.6634 116.7423 85° East 158 182 5,200 -53 Descending Aus ATC (RADAR)
Sat 08:34:30 PM -31.6480 116.8130 76° East 166 191 5,200  Level Aus ATC (RADAR)
Sat 08:34:55 PM -31.6421 116.8344 72° East 163 188 5,200  Level Aus ATC (RADAR)
Sat 08:35:30 PM -31.6353 116.8645 75° East 158 182 5,200  Level Aus ATC (RADAR)
Sat 08:36:15 PM -31.6362 116.9039 92° East 153 176 5,200 -160 Level Aus ATC (RADAR)
Sat 08:36:45 PM -31.6391 116.9300 97° East 156 180 5,000 -727 Descending Aus ATC (RADAR)
Sat 08:37:21 PM -31.6470 116.9590 108° East 154 177 4,400 -857 Descending Aus ATC (RADAR)
Sat 08:37:55 PM -31.6580 116.9857 116° Southeast 157 181 4,000 -609 Descending Aus ATC (RADAR)
Sat 08:38:30 PM -31.6527 117.0172 79° East 161 185 3,700 -632 Descending Aus ATC (RADAR)
Sat 08:39:30 PM -31.6556 117.0693 94° East 156 180 3,000 -706 Descending Aus ATC (RADAR)
Sat 08:39:55 PM -31.6601 117.0902 104° East 154 177 2,700 -300 Descending Aus ATC (RADAR)
Sat 08:40:30 PM -31.6541 117.1207 77° East 167 192 2,700 75 Level Aus ATC (RADAR)
Sat 08:41:15 PM -31.6330 117.1528 52° Northeast 162 186 2,800 120 Climbing Aus ATC (RADAR)
Sat 08:41:20 PM -31.6307 117.1562 52° Northeast 162 186 2,800 38 Level Aus ATC (RADAR)
Sat 09:03:50 PM -31.7302 116.7831 72° East 2,900 38 Climbing Aus ATC (Calculated)
Sat 09:04:58 PM -31.6085 117.2200 52° Northeast 128 147 3,700 645 Climbing Aus ATC (RADAR)
Sat 09:05:23 PM -31.6208 117.2080 220° Southwest 124 143 3,900 508 Climbing Aus ATC (RADAR)
Sat 09:05:57 PM -31.6177 117.1838 278° West 116 133 4,200 380 Climbing Aus ATC (RADAR)
Sat 09:06:42 PM -31.6146 117.1507 276° West 134 154 4,400 -75 Climbing Aus ATC (RADAR)
Sat 09:07:17 PM -31.6167 117.1235 265° West 142 163 4,100 -150 Descending Aus ATC (RADAR)
Sat 09:08:02 PM -31.6243 117.0896 255° West 141 162 4,200 86 Climbing Aus ATC (RADAR)
Sat 09:08:27 PM -31.6340 117.0753 231° Southwest 133 153 4,200 100 Level Aus ATC (RADAR)
Sat 09:09:02 PM -31.6516 117.0606 215° Southwest 130 150 4,300  Climbing Aus ATC (RADAR)
Sat 09:10:02 PM -31.6627 117.0200 252° West 147 169 4,200 -71 Descending Aus ATC (RADAR)
Sat 09:10:27 PM -31.6643 116.9995 265° West 147 169 4,200  Level Aus ATC (RADAR)
Sat 09:11:02 PM -31.6720 116.9743 250° West 142 163 4,200  Level Aus ATC (RADAR)
Sat 09:11:47 PM -31.6844 116.9437 245° Southwest 139 160 4,200  Level Aus ATC (RADAR)
Sat 09:12:22 PM -31.6972 116.9217 235° Southwest 139 160 4,200  Level Aus ATC (RADAR)
Sat 09:12:52 PM -31.7064 116.9009 243° Southwest 143 165 4,200  Level Aus ATC (RADAR)
Sat 09:13:27 PM -31.7123 116.8739 256° West 144 166 4,200  Level Aus ATC (RADAR)
Sat 09:14:02 PM -31.7204 116.8487 249° West 139 160 4,200  Level Aus ATC (RADAR)
Sat 09:15:02 PM -31.7359 116.8062 247° West 140 161 4,200 -70 Level Aus ATC (RADAR)
Sat 09:15:28 PM -31.7434 116.7883 244° Southwest 144 166 4,100 -100 Descending Aus ATC (RADAR)
Sat 09:16:02 PM -31.7534 116.7641 244° Southwest 140 161 4,100  Level Aus ATC (RADAR)
Sat 09:16:47 PM -31.7691 116.7350 238° Southwest 139 160 4,100  Level Aus ATC (RADAR)
Sat 09:17:21 PM -31.7808 116.7115 240° Southwest 142 163 4,100  Level Aus ATC (RADAR)
Sat 09:17:56 PM -31.7943 116.6895 234° Southwest 142 163 4,100  Level Aus ATC (RADAR)
Sat 09:18:31 PM -31.8056 116.6647 242° Southwest 146 168 4,100 86 Level Aus ATC (RADAR)
Sat 09:19:06 PM -31.8100 116.6372 259° West 145 167 4,200 67 Climbing Aus ATC (RADAR)
Sat 09:20:01 PM -31.8209 116.5953 253° West 143 165 4,200 -75 Level Aus ATC (RADAR)
Sat 09:20:26 PM -31.8283 116.5771 244° Southwest 146 168 4,100 -100 Descending Aus ATC (RADAR)
Sat 09:21:01 PM -31.8240 116.5480 280° West 150 173 4,100  Level Aus ATC (RADAR)
Sat 09:21:46 PM -31.8271 116.5115 264° West 146 168 4,100  Level Aus ATC (RADAR)
Sat 09:22:21 PM -31.8333 116.4846 255° West 143 165 4,100  Level Aus ATC (RADAR)
Sat 09:22:56 PM -31.8406 116.4580 252° West 143 165 4,100 92 Level Aus ATC (RADAR)
Sat 09:23:26 PM -31.8468 116.4348 252° West 146 168 4,200  Climbing Aus ATC (RADAR)
Sat 09:24:01 PM -31.8538 116.4075 253° West 146 168 4,100 -57 Descending Aus ATC (RADAR)
Sat 09:25:11 PM -31.8689 116.3541 252° West 145 167 4,100  Level Aus ATC (RADAR)
Sat 09:25:36 PM -31.8718 116.3347 260° West 142 163 4,100  Level Aus ATC (RADAR)
Sat 09:26:11 PM -31.8762 116.3067 259° West 144 166 4,100  Level Aus ATC (RADAR)
Sat 09:27:00 PM -31.8853 116.2674 255° West 147 169 4,100  Level Aus ATC (RADAR)
Sat 09:27:40 PM -31.8924 116.2359 255° West 146 168 4,100  Level Aus ATC (RADAR)
Sat 09:28:30 PM -31.9017 116.1958 255° West 148 170 4,100  Level Aus ATC (RADAR)
Sat 09:29:05 PM -31.9095 116.1698 251° West 139 160 4,100  Level Aus ATC (RADAR)
Sat 09:30:20 PM -31.9164 116.1258 259° West 109 125 4,100  Level Aus ATC (RADAR)
Sat 09:30:50 PM -31.9151 116.1055 274° West 122 140 4,100 185 Level Aus ATC (RADAR)
Sat 09:31:25 PM -31.9184 116.0811 261° West 127 146 4,300  Climbing Aus ATC (RADAR)
Sat 09:32:10 PM -31.9276 116.0517 250° West 121 139 4,100 -150 Descending Aus ATC (RADAR)
Sat 09:32:45 PM -31.9319 116.0296 257° West 116 133 4,100  Level Aus ATC (RADAR)
Sat 09:33:25 PM -31.9355 116.0040 261° West 118 136 4,100  Level Aus ATC (RADAR)
Sat 09:33:50 PM -31.9382 115.9876 259° West 119 137 4,100  Level Aus ATC (RADAR)
Sat 09:34:25 PM -31.9430 115.9656 256° West 117 135 4,100 57 Level Aus ATC (RADAR)
Sat 09:35:35 PM -31.9527 115.9228 255° West 113 130 4,200 -63 Climbing Aus ATC (RADAR)
Sat 09:36:00 PM -31.9560 115.9068 256° West 118 136 4,000 -750 Descending Aus ATC (RADAR)
Sat 09:36:39 PM -31.9605 115.8789 259° West 126 145 3,400 -684 Descending Aus ATC (RADAR)
Sat 09:37:19 PM -31.9639 115.8509 262° West 125 144 3,100 -225 Descending Aus ATC (RADAR)
Sat 09:37:59 PM -31.9449 115.8297 317° Northwest 140 161 3,100 -257 Level Aus ATC (RADAR)
Sat 09:38:29 PM -31.9248 115.8329 North 154 177 2,800 -738 Descending Aus ATC (RADAR)
Sat 09:39:04 PM -31.9232 115.8580 86° East 139 160 2,300 -600 Descending Aus ATC (RADAR)
Sat 09:39:39 PM -31.9417 115.8646 163° South 124 143 2,100 -267 Descending Aus ATC (RADAR)
Sat 09:40:34 PM -31.9703 115.8594 189° South 115 132 1,900 -300 Descending Aus ATC (RADAR)
Sat 09:40:59 PM -31.9834 115.8548 197° South 117 135 1,700 -400 Descending Aus ATC (RADAR)
Sat 09:41:34 PM -32.0015 115.8525 186° South 115 132 1,500 -75 Descending Aus ATC (RADAR)
Sat 09:42:19 PM -32.0234 115.8584 167° South 108 124 1,600 150 Climbing Aus ATC (RADAR)
Sat 09:42:54 PM -32.0406 115.8647 163° South 110 127 1,700 -75 Climbing Aus ATC (RADAR)
Sat 09:43:39 PM -32.0602 115.8773 151° Southeast 109 125 1,500 -343 Descending Aus ATC (RADAR)
Sat 09:44:04 PM -32.0620 115.8935 97° East 113 130 1,300 -500 Descending Aus ATC (RADAR)
Sat 09:44:39 PM -32.0750 115.9037 146° Southeast 98 113 1,000 -414 Descending Aus ATC (RADAR)
Sat 09:46:23 PM -32.1002 115.8791 220° Southwest 79 91 -388 Descending Aus ATC (RADAR)
Sat 09:46:58 PM -32.0963 115.8758 325° Northwest 22 25 100 171 Climbing Aus ATC (RADAR)

Login

Don't have an account? Register now (free) for customized features, flight alerts, and more!